createdAt,value
2019-03-18T00:00:09.565Z,75.54
2019-03-18T00:02:40.789Z,75.12
2019-03-18T00:05:11.423Z,75.33
2019-03-18T00:07:42.005Z,75.38
2019-03-18T00:10:12.868Z,74.77
2019-03-18T00:12:43.350Z,74.74
2019-03-18T00:15:16.663Z,74.60
2019-03-18T00:17:46.790Z,74.86
2019-03-18T00:20:16.917Z,74.77
2019-03-18T00:22:46.069Z,75.12
2019-03-18T00:25:14.984Z,74.66
2019-03-18T00:27:46.385Z,74.48
2019-03-18T00:30:15.288Z,74.24
2019-03-18T00:32:46.108Z,74.65
2019-03-18T00:35:15.059Z,74.40
2019-03-18T00:37:43.948Z,74.37
2019-03-18T00:40:14.895Z,74.33
2019-03-18T00:42:47.323Z,74.08
2019-03-18T00:45:16.276Z,74.40
2019-03-18T00:47:45.245Z,74.54
2019-03-18T00:50:17.155Z,74.39
2019-03-18T00:52:48.717Z,74.08
2019-03-18T00:55:17.777Z,74.46
2019-03-18T00:57:47.206Z,74.48
2019-03-18T01:00:15.831Z,74.20
2019-03-18T01:02:49.268Z,74.54
2019-03-18T01:05:19.656Z,74.77
2019-03-18T01:07:48.760Z,74.72
2019-03-18T01:10:19.569Z,75.04
2019-03-18T01:12:51.822Z,75.07
2019-03-18T01:15:27.966Z,74.65
2019-03-18T01:17:52.705Z,74.99
2019-03-18T01:20:21.518Z,74.92
2019-03-18T01:22:50.279Z,74.69
2019-03-18T01:25:20.778Z,74.47
2019-03-18T01:27:51.282Z,74.64
2019-03-18T01:30:20.284Z,74.43
2019-03-18T01:32:49.445Z,74.56
2019-03-18T01:35:20.048Z,74.45
2019-03-18T01:37:48.977Z,74.60
2019-03-18T01:40:19.146Z,74.57
2019-03-18T01:42:48.293Z,74.59
2019-03-18T01:45:18.554Z,74.89
2019-03-18T01:47:50.976Z,75.17
2019-03-18T01:50:21.428Z,75.13
2019-03-18T01:52:52.452Z,74.76
2019-03-18T01:55:23.939Z,74.49
2019-03-18T01:57:54.408Z,74.71
2019-03-18T02:00:24.484Z,74.51
2019-03-18T02:02:54.720Z,74.67
2019-03-18T02:05:23.475Z,74.88
2019-03-18T02:07:53.791Z,75.00
2019-03-18T02:10:22.880Z,74.89
2019-03-18T02:12:52.679Z,74.82
2019-03-18T02:15:23.167Z,74.96
2019-03-18T02:17:51.745Z,75.14
2019-03-18T02:20:25.653Z,75.34
2019-03-18T02:22:57.935Z,75.08
2019-03-18T02:25:26.877Z,74.76
2019-03-18T02:27:58.634Z,74.77
2019-03-18T02:30:27.546Z,74.92
2019-03-18T02:32:56.333Z,74.68
2019-03-18T02:35:25.061Z,75.12
2019-03-18T02:37:55.907Z,75.29
2019-03-18T02:40:24.949Z,75.02
2019-03-18T02:42:53.744Z,75.03
2019-03-18T02:45:25.033Z,75.00
2019-03-18T02:47:56.978Z,75.14
2019-03-18T02:50:25.548Z,75.21
2019-03-18T02:52:57.140Z,75.00
2019-03-18T02:55:30.557Z,75.32
2019-03-18T02:57:59.787Z,74.78
2019-03-18T03:00:29.730Z,75.03
2019-03-18T03:03:00.325Z,75.10
2019-03-18T03:05:31.241Z,75.24
2019-03-18T03:08:06.197Z,75.06
2019-03-18T03:10:35.070Z,75.22
2019-03-18T03:13:05.202Z,75.31
2019-03-18T03:15:54.077Z,75.43
2019-03-18T03:18:24.404Z,75.58
2019-03-18T03:20:56.140Z,75.63
2019-03-18T03:23:25.135Z,75.80
2019-03-18T03:25:53.903Z,75.40
2019-03-18T03:28:22.951Z,76.13
2019-03-18T03:30:53.664Z,76.26
2019-03-18T03:33:22.341Z,76.65
2019-03-18T03:35:53.099Z,77.04
2019-03-18T03:38:21.846Z,76.95
2019-03-18T03:40:54.350Z,77.28
2019-03-18T03:43:26.931Z,77.76
2019-03-18T03:46:00.179Z,77.82
2019-03-18T03:48:31.178Z,78.77
2019-03-18T03:51:04.554Z,78.73
2019-03-18T03:53:33.681Z,79.42
2019-03-18T03:56:04.122Z,79.63
2019-03-18T03:58:35.003Z,80.08
2019-03-18T04:01:05.636Z,80.76
2019-03-18T04:03:38.512Z,80.90
2019-03-18T04:06:09.584Z,80.90
2019-03-18T04:08:38.201Z,80.50
2019-03-18T04:11:12.737Z,81.04
2019-03-18T04:13:42.413Z,81.56
2019-03-18T04:16:11.475Z,81.70
2019-03-18T04:18:46.400Z,82.24
2019-03-18T04:21:14.969Z,82.24
2019-03-18T04:23:45.764Z,82.69
2019-03-18T04:26:14.334Z,82.66
2019-03-18T04:28:48.800Z,82.77
2019-03-18T04:31:17.583Z,82.87
2019-03-18T04:33:46.184Z,82.99
2019-03-18T04:36:16.438Z,82.59
2019-03-18T04:38:46.710Z,82.73
2019-03-18T04:41:17.418Z,82.23
2019-03-18T04:43:47.860Z,82.59
2019-03-18T04:46:16.767Z,82.60
2019-03-18T04:48:48.444Z,82.75
2019-03-18T04:51:19.291Z,82.53
2019-03-18T04:53:49.675Z,83.16
2019-03-18T04:56:19.912Z,82.64
2019-03-18T04:58:50.208Z,82.80
2019-03-18T05:01:20.516Z,83.06
2019-03-18T05:03:49.337Z,83.01
2019-03-18T05:06:18.302Z,82.40
2019-03-18T05:08:48.260Z,82.26
2019-03-18T05:11:17.607Z,82.76
2019-03-18T05:13:47.897Z,82.51
2019-03-18T05:16:16.571Z,82.82
2019-03-18T05:18:45.324Z,82.80
2019-03-18T05:21:16.139Z,83.01
2019-03-18T05:23:47.596Z,83.11
2019-03-18T05:26:24.585Z,83.12
2019-03-18T05:28:55.142Z,83.04
2019-03-18T05:31:25.736Z,82.55
2019-03-18T05:33:55.306Z,82.05
2019-03-18T05:36:25.784Z,81.87
2019-03-18T05:38:54.724Z,81.73
2019-03-18T05:41:23.583Z,82.08
2019-03-18T05:43:55.748Z,81.91
2019-03-18T05:46:24.938Z,82.14
2019-03-18T05:48:54.018Z,81.74
2019-03-18T05:51:24.934Z,81.75
2019-03-18T05:53:55.206Z,81.65
2019-03-18T05:56:26.112Z,81.80
2019-03-18T05:58:59.865Z,82.17
2019-03-18T06:01:30.741Z,82.62
2019-03-18T06:04:00.619Z,82.66
2019-03-18T06:06:29.171Z,82.50
2019-03-18T06:09:01.836Z,82.53
2019-03-18T06:11:32.181Z,82.51
2019-03-18T06:14:03.025Z,82.28
2019-03-18T06:16:33.322Z,82.76
2019-03-18T06:19:04.003Z,82.50
2019-03-18T06:21:34.109Z,82.06
2019-03-18T06:24:06.292Z,82.43
2019-03-18T06:26:39.613Z,81.75
2019-03-18T06:29:12.313Z,81.17
2019-03-18T06:31:43.490Z,81.37
2019-03-18T06:34:13.459Z,81.07
2019-03-18T06:36:44.021Z,81.67
2019-03-18T06:39:14.299Z,80.60
2019-03-18T06:41:43.237Z,80.89
2019-03-18T06:44:11.988Z,80.66
2019-03-18T06:46:41.336Z,80.90
2019-03-18T06:49:12.273Z,79.97
2019-03-18T06:51:43.111Z,80.55
2019-03-18T06:54:13.558Z,80.34
2019-03-18T06:56:45.720Z,79.95
2019-03-18T06:59:14.705Z,79.79
2019-03-18T07:01:44.973Z,80.16
2019-03-18T07:04:15.319Z,80.57
2019-03-18T07:06:51.779Z,79.79
2019-03-18T07:09:20.522Z,78.69
2019-03-18T07:11:50.956Z,77.82
2019-03-18T07:14:24.457Z,77.62
2019-03-18T07:16:53.402Z,78.38
2019-03-18T07:19:24.024Z,77.70
2019-03-18T07:21:55.288Z,77.71
2019-03-18T07:24:25.246Z,77.33
2019-03-18T07:26:53.820Z,77.69
2019-03-18T07:29:22.372Z,77.03
2019-03-18T07:31:51.382Z,77.36
2019-03-18T07:34:20.837Z,76.52
2019-03-18T07:37:16.721Z,75.68
2019-03-18T07:40:31.910Z,76.14
2019-03-18T07:43:33.297Z,75.28
2019-03-18T07:46:36.168Z,73.84
2019-03-18T07:49:48.843Z,74.63
2019-03-18T07:52:55.332Z,74.76
2019-03-18T07:59:08.585Z,75.25
2019-03-18T08:01:42.077Z,74.79
2019-03-18T08:04:14.155Z,75.27
2019-03-18T08:06:47.383Z,75.68
2019-03-18T08:09:17.057Z,75.95
2019-03-18T08:11:46.140Z,75.66
2019-03-18T08:14:16.326Z,74.44
2019-03-18T08:16:49.732Z,76.03
2019-03-18T08:19:18.319Z,75.34
2019-03-18T08:21:51.984Z,74.53
2019-03-18T08:24:19.804Z,74.80
2019-03-18T08:26:53.734Z,75.29
2019-03-18T08:29:22.731Z,74.17
2019-03-18T08:31:53.038Z,74.51
2019-03-18T08:34:25.242Z,74.32
2019-03-18T08:36:53.985Z,73.97
2019-03-18T08:39:28.426Z,72.81
2019-03-18T08:41:57.339Z,73.16
2019-03-18T08:44:25.911Z,74.35
2019-03-18T08:46:55.084Z,74.23
2019-03-18T08:49:24.302Z,75.82
2019-03-18T08:51:53.149Z,74.25
2019-03-18T08:54:22.126Z,75.23
2019-03-18T08:56:52.366Z,74.00
2019-03-18T08:59:24.407Z,74.83
2019-03-18T09:01:53.562Z,75.58
2019-03-18T09:04:27.186Z,75.04
2019-03-18T09:07:00.252Z,75.40
2019-03-18T09:09:28.960Z,77.41
2019-03-18T09:11:58.651Z,76.17
2019-03-18T09:14:27.273Z,77.43
2019-03-18T09:16:58.276Z,76.06
2019-03-18T09:19:27.188Z,76.71
2019-03-18T09:21:56.564Z,74.35
2019-03-18T09:24:25.490Z,73.85
2019-03-18T09:27:02.394Z,75.12
2019-03-18T09:29:26.756Z,73.39
2019-03-18T09:31:55.449Z,72.50
2019-03-18T09:34:24.215Z,71.56
2019-03-18T09:36:52.980Z,71.74
2019-03-18T09:39:21.721Z,69.75
2019-03-18T09:41:54.240Z,70.74
2019-03-18T09:44:23.347Z,70.01
2019-03-18T09:46:52.100Z,69.91
2019-03-18T09:49:23.253Z,70.76
2019-03-18T09:51:52.009Z,72.24
2019-03-18T09:54:26.018Z,71.44
2019-03-18T09:56:56.749Z,69.05
2019-03-18T09:59:31.264Z,68.98
2019-03-18T10:02:00.246Z,68.93
2019-03-18T10:04:29.227Z,68.05
2019-03-18T10:06:59.180Z,68.76
2019-03-18T10:09:31.089Z,69.61
2019-03-18T10:12:03.397Z,68.48
2019-03-18T10:14:33.712Z,69.13
2019-03-18T10:17:09.707Z,69.55
2019-03-18T10:19:34.006Z,69.76
2019-03-18T10:22:03.179Z,69.35
2019-03-18T10:24:35.332Z,69.06
2019-03-18T10:27:04.320Z,68.36
2019-03-18T10:29:37.977Z,68.83
2019-03-18T10:32:07.946Z,70.32
2019-03-18T10:34:36.887Z,67.10
2019-03-18T10:37:05.930Z,68.46
2019-03-18T10:39:34.871Z,67.28
2019-03-18T10:42:05.699Z,63.54
2019-03-18T10:44:39.007Z,62.96
2019-03-18T10:47:09.500Z,61.32
2019-03-18T10:49:45.944Z,62.82
2019-03-18T10:52:11.145Z,63.10
2019-03-18T10:54:39.994Z,67.20
2019-03-18T10:57:08.962Z,69.25
2019-03-18T10:59:37.547Z,68.73
2019-03-18T11:02:06.619Z,67.17
2019-03-18T11:04:35.530Z,66.45
2019-03-18T11:07:06.394Z,65.68
2019-03-18T11:09:35.378Z,64.62
2019-03-18T11:12:03.968Z,63.64
2019-03-18T11:14:35.862Z,62.88
2019-03-18T11:17:05.841Z,59.61
2019-03-18T11:19:36.430Z,59.30
2019-03-18T11:22:05.210Z,56.66
2019-03-18T11:24:34.726Z,56.81
2019-03-18T11:27:04.746Z,57.71
2019-03-18T11:29:33.645Z,58.37
2019-03-18T11:32:02.571Z,57.93
2019-03-18T11:34:31.838Z,58.30
2019-03-18T11:37:02.408Z,57.80
2019-03-18T11:39:31.550Z,55.37
2019-03-18T11:42:01.955Z,54.48
2019-03-18T11:44:34.690Z,55.57
2019-03-18T11:47:04.107Z,54.93
2019-03-18T11:49:39.703Z,51.99
2019-03-18T11:52:05.231Z,53.05
2019-03-18T11:54:35.782Z,51.33
2019-03-18T11:57:06.523Z,53.17
2019-03-18T11:59:35.116Z,51.42
2019-03-18T12:02:05.575Z,52.22
2019-03-18T12:04:35.848Z,52.53
2019-03-18T12:07:04.431Z,53.31
2019-03-18T12:09:33.204Z,52.53
2019-03-18T12:12:01.985Z,51.61
2019-03-18T12:14:32.098Z,51.88
2019-03-18T12:17:02.784Z,52.45
2019-03-18T12:19:31.350Z,54.42
2019-03-18T12:22:00.668Z,53.13
2019-03-18T12:24:31.376Z,53.68
2019-03-18T12:27:02.176Z,53.81
2019-03-18T12:29:35.679Z,54.63
2019-03-18T12:32:09.274Z,54.05
2019-03-18T12:34:39.224Z,54.96
2019-03-18T12:37:10.786Z,58.79
2019-03-18T12:39:39.518Z,61.26
2019-03-18T12:42:08.479Z,63.25
2019-03-18T12:44:44.122Z,64.16
2019-03-18T12:47:12.704Z,63.07
2019-03-18T12:49:43.855Z,62.68
2019-03-18T12:52:12.623Z,61.93
2019-03-18T12:54:42.948Z,62.70
2019-03-18T12:57:13.232Z,61.03
2019-03-18T12:59:41.795Z,60.57
2019-03-18T13:02:13.929Z,59.22
2019-03-18T13:04:44.662Z,58.70
2019-03-18T13:07:14.835Z,56.82
2019-03-18T13:09:43.594Z,57.83
2019-03-18T13:12:13.859Z,56.34
2019-03-18T13:14:42.616Z,57.75
2019-03-18T13:17:12.880Z,57.69
2019-03-18T13:19:43.652Z,57.42
2019-03-18T13:22:15.851Z,56.22
2019-03-18T13:24:46.579Z,56.06
2019-03-18T13:27:20.315Z,56.88
2019-03-18T13:29:48.537Z,55.11
2019-03-18T13:32:17.121Z,56.63
2019-03-18T13:34:49.393Z,57.24
2019-03-18T13:37:18.164Z,56.09
2019-03-18T13:39:46.736Z,55.89
2019-03-18T13:42:16.975Z,55.91
2019-03-18T13:44:45.548Z,56.15
2019-03-18T13:47:16.334Z,55.98
2019-03-18T13:49:46.581Z,56.91
2019-03-18T13:52:15.931Z,56.03
2019-03-18T13:54:46.603Z,55.05
2019-03-18T13:57:15.224Z,54.06
2019-03-18T13:59:45.263Z,54.20
2019-03-18T14:02:18.904Z,54.13
2019-03-18T14:04:48.050Z,55.70
2019-03-18T14:07:18.872Z,55.44
2019-03-18T14:09:47.607Z,54.54
2019-03-18T14:12:17.318Z,55.27
2019-03-18T14:14:49.560Z,56.63
2019-03-18T14:17:18.154Z,60.26
2019-03-18T14:19:48.017Z,61.21
2019-03-18T14:22:16.981Z,62.14
2019-03-18T14:24:48.776Z,61.14
2019-03-18T14:27:19.573Z,61.79
2019-03-18T14:29:50.209Z,64.37
2019-03-18T14:32:20.415Z,65.78
2019-03-18T14:34:50.030Z,67.93
2019-03-18T14:37:19.027Z,66.71
2019-03-18T14:39:48.013Z,66.97
2019-03-18T14:42:16.593Z,66.22
2019-03-18T14:44:46.765Z,67.69
2019-03-18T14:47:15.705Z,65.33
2019-03-18T14:49:46.342Z,65.00
2019-03-18T14:52:16.172Z,63.09
2019-03-18T14:54:45.357Z,62.34
2019-03-18T14:57:17.306Z,61.93
2019-03-18T14:59:49.165Z,61.89
2019-03-18T15:02:18.902Z,59.78
2019-03-18T15:04:48.094Z,59.03
2019-03-18T15:07:17.372Z,58.43
2019-03-18T15:09:45.955Z,58.12
2019-03-18T15:12:18.111Z,58.40
2019-03-18T15:14:51.659Z,56.19
2019-03-18T15:17:22.873Z,56.92
2019-03-18T15:19:51.624Z,54.64
2019-03-18T15:22:21.568Z,54.88
2019-03-18T15:24:50.487Z,55.41
2019-03-18T15:27:20.799Z,55.36
2019-03-18T15:29:51.042Z,55.69
2019-03-18T15:32:21.078Z,56.43
2019-03-18T15:34:50.007Z,55.18
2019-03-18T15:37:18.963Z,55.78
2019-03-18T15:39:48.098Z,55.36
2019-03-18T15:42:17.025Z,55.88
2019-03-18T15:44:45.814Z,55.25
2019-03-18T15:47:15.404Z,56.41
2019-03-18T15:49:47.189Z,57.31
2019-03-18T15:52:15.969Z,61.71
2019-03-18T15:54:53.702Z,62.50
2019-03-18T15:57:29.155Z,60.78
2019-03-18T15:59:48.737Z,59.94
2019-03-18T16:02:18.699Z,59.10
2019-03-18T16:04:47.463Z,56.77
2019-03-18T16:07:16.656Z,55.28
2019-03-18T16:09:50.226Z,56.50
2019-03-18T16:12:18.805Z,54.21
2019-03-18T16:14:48.765Z,55.08
2019-03-18T16:17:17.343Z,55.27
2019-03-18T16:19:48.100Z,55.05
2019-03-18T16:22:23.756Z,55.86
2019-03-18T16:24:49.892Z,54.18
2019-03-18T16:27:19.498Z,55.17
2019-03-18T16:29:51.481Z,55.21
2019-03-18T16:32:24.146Z,56.47
2019-03-18T16:34:52.784Z,62.98
2019-03-18T16:37:24.502Z,70.50
2019-03-18T16:39:56.442Z,74.43
2019-03-18T16:42:25.200Z,77.36
2019-03-18T16:44:54.126Z,76.32
2019-03-18T16:47:22.867Z,75.93
2019-03-18T16:49:55.483Z,73.39
2019-03-18T16:52:35.235Z,67.51
2019-03-18T16:54:58.630Z,68.62
2019-03-18T16:57:30.149Z,69.14
2019-03-18T16:59:58.760Z,70.53
2019-03-18T17:02:27.646Z,70.61
2019-03-18T17:04:57.609Z,70.83
2019-03-18T17:07:27.159Z,71.59
2019-03-18T17:09:58.403Z,71.77
2019-03-18T17:12:26.977Z,72.06
2019-03-18T17:14:55.577Z,71.37
2019-03-18T17:17:24.307Z,72.88
2019-03-18T17:19:54.242Z,76.05
2019-03-18T17:22:23.173Z,77.80
2019-03-18T17:24:56.420Z,80.08
2019-03-18T17:27:24.960Z,77.50
2019-03-18T17:29:55.110Z,75.89
2019-03-18T17:32:23.659Z,74.48
2019-03-18T17:34:52.563Z,74.92
2019-03-18T17:37:21.114Z,75.95
2019-03-18T17:39:50.045Z,77.04
2019-03-18T17:42:18.585Z,77.70
2019-03-18T17:44:47.498Z,77.55
2019-03-18T17:47:16.031Z,77.72
2019-03-18T17:49:44.622Z,77.90
2019-03-18T17:52:13.556Z,77.94
2019-03-18T17:54:44.739Z,78.22
2019-03-18T17:57:13.162Z,78.21
2019-03-18T17:59:42.095Z,78.73
2019-03-18T18:02:14.551Z,79.42
2019-03-18T18:04:43.433Z,80.30
2019-03-18T18:07:12.182Z,80.14
2019-03-18T18:09:40.766Z,80.78
2019-03-18T18:12:09.714Z,81.37
2019-03-18T18:14:42.906Z,81.72
2019-03-18T18:17:11.444Z,82.41
2019-03-18T18:19:40.371Z,82.81
2019-03-18T18:22:10.288Z,83.32
2019-03-18T18:24:40.433Z,83.03
2019-03-18T18:27:10.947Z,83.36
2019-03-18T18:29:39.504Z,83.89
2019-03-18T18:32:08.397Z,84.37
2019-03-18T18:34:37.533Z,84.44
2019-03-18T18:37:07.461Z,84.32
2019-03-18T18:39:36.421Z,84.69
2019-03-18T18:42:05.194Z,85.48
2019-03-18T18:44:34.127Z,85.30
2019-03-18T18:47:02.683Z,85.23
2019-03-18T18:49:34.315Z,85.20
2019-03-18T18:52:04.881Z,85.05
2019-03-18T18:54:36.917Z,85.38
2019-03-18T18:57:05.686Z,85.66
2019-03-18T18:59:34.626Z,85.81
2019-03-18T19:02:06.706Z,85.72
2019-03-18T19:04:35.271Z,85.98
2019-03-18T19:07:03.836Z,86.22
2019-03-18T19:09:33.157Z,86.49
2019-03-18T19:12:01.729Z,86.91
2019-03-18T19:14:30.626Z,87.08
2019-03-18T19:16:59.202Z,87.19
2019-03-18T19:19:28.292Z,86.52
2019-03-18T19:21:56.873Z,86.30
2019-03-18T19:24:25.518Z,85.72
2019-03-18T19:26:56.109Z,85.11
2019-03-18T19:29:24.977Z,84.22
2019-03-18T19:31:53.549Z,79.05
2019-03-18T19:34:23.787Z,80.19
2019-03-18T19:36:52.518Z,78.22
2019-03-18T19:39:21.232Z,75.61
2019-03-18T19:41:50.310Z,75.09
2019-03-18T19:44:19.251Z,74.31
2019-03-18T19:46:47.830Z,73.47
2019-03-18T19:49:16.842Z,73.43
2019-03-18T19:51:45.741Z,73.14
2019-03-18T19:54:14.576Z,73.21
2019-03-18T19:56:46.611Z,73.01
2019-03-18T19:59:16.723Z,73.72
2019-03-18T20:01:45.283Z,73.70
2019-03-18T20:04:13.849Z,73.73
2019-03-18T20:06:44.667Z,72.69
2019-03-18T20:09:16.438Z,72.47
2019-03-18T20:11:48.951Z,71.47
2019-03-18T20:14:17.700Z,70.99
2019-03-18T20:16:46.438Z,70.63
2019-03-18T20:19:15.192Z,70.53
2019-03-18T20:21:45.123Z,70.33
2019-03-18T20:24:14.147Z,70.71
2019-03-18T20:26:43.051Z,70.88
2019-03-18T20:29:13.073Z,71.12
2019-03-18T20:31:41.627Z,70.69
2019-03-18T20:34:13.581Z,71.75
2019-03-18T20:36:45.379Z,71.27
2019-03-18T20:39:22.449Z,71.73
2019-03-18T20:41:51.549Z,71.58
2019-03-18T20:44:20.357Z,72.20
2019-03-18T20:46:49.844Z,72.53
2019-03-18T20:49:18.802Z,72.51
2019-03-18T20:51:47.521Z,72.68
2019-03-18T20:54:20.768Z,73.17
2019-03-18T20:56:49.524Z,72.94
2019-03-18T20:59:18.082Z,73.00
2019-03-18T21:01:47.067Z,73.74
2019-03-18T21:04:15.847Z,74.34
2019-03-18T21:06:44.767Z,75.05
2019-03-18T21:09:13.740Z,75.29
2019-03-18T21:11:43.878Z,75.64
2019-03-18T21:14:12.833Z,76.24
2019-03-18T21:16:41.418Z,75.24
2019-03-18T21:19:10.630Z,75.49
2019-03-18T21:21:40.999Z,75.72
2019-03-18T21:24:22.686Z,75.84
2019-03-18T21:26:45.396Z,76.89
2019-03-18T21:29:14.783Z,77.06
2019-03-18T21:31:43.372Z,76.76
2019-03-18T21:34:12.259Z,77.13
2019-03-18T21:36:41.389Z,76.92
2019-03-18T21:39:11.788Z,77.10
2019-03-18T21:41:40.705Z,77.34
2019-03-18T21:44:11.153Z,77.36
2019-03-18T21:46:39.942Z,77.21
2019-03-18T21:49:10.183Z,76.74
2019-03-18T21:51:40.967Z,76.96
2019-03-18T21:54:11.869Z,76.87
2019-03-18T21:56:43.452Z,77.29
2019-03-18T21:59:12.385Z,77.55
2019-03-18T22:01:41.102Z,77.87
2019-03-18T22:04:11.037Z,77.39
2019-03-18T22:06:41.045Z,78.17
2019-03-18T22:09:09.645Z,79.20
2019-03-18T22:11:38.957Z,79.31
2019-03-18T22:14:07.960Z,79.29
2019-03-18T22:16:36.696Z,78.65
2019-03-18T22:19:05.633Z,78.96
2019-03-18T22:21:36.699Z,78.44
2019-03-18T22:24:05.289Z,78.04
2019-03-18T22:26:35.810Z,78.31
2019-03-18T22:29:04.383Z,78.61
2019-03-18T22:31:33.112Z,78.75
2019-03-18T22:34:03.942Z,79.62
2019-03-18T22:36:32.673Z,80.24
2019-03-18T22:39:02.178Z,80.41
2019-03-18T22:41:30.926Z,80.94
2019-03-18T22:43:59.671Z,81.30
2019-03-18T22:46:28.561Z,81.46
2019-03-18T22:48:58.593Z,81.69
2019-03-18T22:51:27.164Z,82.09
2019-03-18T22:53:55.757Z,82.02
2019-03-18T22:56:26.699Z,81.40
2019-03-18T22:58:55.710Z,81.67
2019-03-18T23:01:26.749Z,82.15
2019-03-18T23:03:57.085Z,82.47
2019-03-18T23:06:28.064Z,82.36
2019-03-18T23:08:58.842Z,83.04
2019-03-18T23:11:27.920Z,83.04
2019-03-18T23:13:56.832Z,83.10
2019-03-18T23:16:27.726Z,83.17
2019-03-18T23:18:58.290Z,83.29
2019-03-18T23:21:28.821Z,82.85
2019-03-18T23:23:57.896Z,82.67
2019-03-18T23:26:27.832Z,83.08
2019-03-18T23:28:56.747Z,82.94
2019-03-18T23:31:28.091Z,82.59
2019-03-18T23:33:56.686Z,82.00
2019-03-18T23:36:27.751Z,81.55
2019-03-18T23:38:58.326Z,81.17
2019-03-18T23:41:27.197Z,80.46
2019-03-18T23:43:57.422Z,80.42
2019-03-18T23:46:26.641Z,79.99
2019-03-18T23:48:59.916Z,80.22
2019-03-18T23:51:30.679Z,80.72
2019-03-18T23:53:59.245Z,80.94
2019-03-18T23:56:29.354Z,80.95
2019-03-18T23:59:00.894Z,81.36
